MMMM 090551Z 00000KT 7SM SKC 10/06 A3029 RMK SLP136 52009 954 HZY CI= 090552

MMMM 090441Z 14002KT 7SM SKC 12/06 A3029 RMK HZY CI= 090441

MMMM 090344Z 13002KT 8SM SKC 13/06 A3028 RMK HZY CI= 090344

MMMM 090245Z 25006KT 8SM SKC 16/07 A3026 RMK SLP142 52012 903 HZY CI= 090246

MMMM 090146Z 21008KT 8SM SKC 17/08 A3023 RMK HZY= 090147

MMMM 090040Z 19004KT 8SM SKC 18/07 A3020 RMK HZY= 090040

SPECI MMMM 090021Z 19004KT 8SM SKC 18/07 A3020 RMK HZY= 090021

SPECI MMMM 090012Z 19004KT 8SM SKC 20/00 A3019 RMK HZY= 090013

SPECI MMMM 082348Z 18004KT 8SM SKC 22/07 A3019 RMK HZY= 082348

MMMM 082340Z 17005KT 8SM SKC 24/07 A3018 RMK SLP119 52004 903 HZY= 082341

MMMM 082240Z 17008KT 8SM SKC 26/04 A3017 RMK HZY= 082240

MMMM 082204Z RTD 00000KT 8SM SKC 27/00 A3017= 082205

MMMM 082048Z 28006KT 8SM FEW300 26/M01 A3019 RMK SLP109 57033 968 8/001= 082049

MMMM 081940Z 00000KT 8SM SCT300 26/00 A3022 RMK 8/008= 081941

MMMM 081846Z 35002KT 8SM SCT300 24/02 A3026 RMK 8/008= 081846

MMMM 081742Z 00000KT 8SM BKN300 22/06 A3030 RMK SLP114 57017 906 8/008= 081743

SPECI MMMM 081721Z 00000KT 8SM BKN300 20/07 A3031 RMK 8/008= 081721

MMMM 081640Z 28003KT 8SM BKN300 18/07 A3034 RMK 8/008= 081640

SPECI MMMM 081632Z 13002KT 8SM BKN300 17/07 A3034 RMK 8/008 HZY= 081633

MMMM 081545Z 00000KT 8SM BKN300 15/07 A3035 RMK 8/001 HZY= 081546

SPECI MMMM 081522Z 00000KT 7SM BKN300 13/07 A3036 RMK 8/001 HZY= 081523

MMMM 081448Z 25003KT 7SM BKN300 11/07 A3036 RMK SLP191 52019 914 8/001 HZY= 081448

SPECI MMMM 081421Z 00000KT 7SM SCT300 09/06 A3035 RMK 8/001 HZY= 081421

SPECI MMMM 081359Z 00000KT 7SM SCT300 06/05 A3034 RMK 8/001 HZY= 081359

MMMM 081342Z 00000KT 7SM SCT300 04/04 A3033 RMK 8/001 HZY= 081343

MMMM 081242Z 00000KT 7SM SKC 04/03 A3031 RMK HZY CI= 081242

MMMM 081141Z 00000KT 6SM SKC 05/04 A3030 RMK SLP166 52001 910 HZY= 081141

MMMM 081041Z 00000KT 6SM SKC 05/04 A3028 RMK HZY= 081041

MMMM 080941Z 00000KT 6SM SKC 06/05 A3028 RMK HZY= 080941

MMMM 080841Z 00000KT 6SM SKC 06/05 A3027 RMK SLP146 52004 901 HZY= 080841

MMMM 080741Z 00000KT 7SM SKC 07/05 A3028 RMK HZY= 080741

MMMM 080641Z 00000KT 7SM SKC 08/05 A3028 RMK HZY= 080641

MMMM 080541Z 00000KT 7SM SKC 09/05 A3028 RMK SLP145 52016 954 HZY= 080542

MMMM 080441Z 00000KT 7SM SKC 09/06 A3027 RMK HZY= 080441

MMMM 080344Z 00000KT 7SM SKC 13/07 A3026 RMK HZY CI= 080344

MMMM 080241Z 00000KT 7SM SKC 14/07 A3024 RMK SLP145 52012 967 HZY CI= 080242

MMMM 080142Z 27004KT 7SM SKC 15/07 A3022 RMK HZY= 080142

MMMM 080100Z RTD 19003KT 8SM SKC 16/07 A3020 RMK HZY= 080100

SPECI MMMM 080005Z 18004KT 8SM SKC 20/07 A3019 RMK HZY CI= 080006

MMMM 072341Z 18004KT 8SM SKC 22/07 A3018 RMK SLP123 57017 967 HZY SC= 072342

MMMM 072246Z 19007KT 8SM SKC 24/07 A3017 RMK HZY SC= 072247

MMMM 072140Z 17005KT 8SM SKC 25/07 A3017 RMK HZY SC= 072140

MMMM 072040Z 17010KT 8SM SKC 26/07 A3017 RMK SLP123 57009 953 HZY CU= 072040

MMMM 071943Z 16009KT 8SM SKC 25/04 A3019 RMK HZY SC= 071943

MMMM 071843Z 24004KT 8SM SKC 24/08 A3023 RMK HZY CU= 071844

MMMM 071742Z 33003KT 8SM SKC 22/08 A3028 RMK SLP140 57009 972 HZY CU= 071742

MMMM 071641Z 00000KT 7SM SKC 19/08 A3031 RMK HZY= 071641

SPECI MMMM 071619Z 00000KT 7SM SKC 18/08 A3032 RMK HZY= 071619

MMMM 071540Z 00000KT 7SM SKC 16/08 A3032 RMK HZY= 071540

SPECI MMMM 071528Z 00000KT 7SM SKC 15/08 A3032 RMK HZY CI= 071528